Time;durP1;ratioP1;P1;durP2;ratioP2;P2;SDS_P1;SDS_P2;PMS_P1;PMS_P2;Temp;Humidity;BMP_temperature;BMP_pressure;BME280_temperature;BME280_humidity;BME280_pressure;Samples;Min_cycle;Max_cycle;Signal;HPM_P1;HPM_P2
2022/05/20 00:01:50;;;;;;;5.70;3.33;;;16.60;99.90;;;;;;4145088;28;20204;-79
2022/05/20 00:03:52;;;;;;;9.47;4.07;;;16.60;99.90;;;;;;4145786;28;20204;-79
2022/05/20 00:05:54;;;;;;;7.07;3.83;;;16.60;99.90;;;;;;4145269;28;20240;-79
2022/05/20 00:07:55;;;;;;;7.03;3.87;;;16.60;99.90;;;;;;4211505;28;20209;-79
2022/05/20 00:09:57;;;;;;;4.70;3.57;;;16.60;99.90;;;;;;4146348;28;20211;-79
2022/05/20 00:12:02;;;;;;;9.50;4.30;;;16.50;99.90;;;;;;4213204;28;20300;-79
2022/05/20 00:14:06;;;;;;;5.57;3.67;;;16.60;99.90;;;;;;4212855;28;20214;-79
2022/05/20 00:16:07;;;;;;;10.90;4.43;;;16.60;99.90;;;;;;4145201;28;20614;-79
2022/05/20 00:18:09;;;;;;;6.60;3.70;;;16.60;99.90;;;;;;4229975;28;20238;-79
2022/05/20 00:20:13;;;;;;;8.13;3.50;;;16.60;99.90;;;;;;4146362;28;20216;-79
2022/05/20 00:22:15;;;;;;;13.40;3.90;;;16.60;99.90;;;;;;4144949;28;20641;-79
2022/05/20 00:24:17;;;;;;;7.50;3.80;;;16.70;99.90;;;;;;4148303;28;20219;-79
2022/05/20 00:26:17;;;;;;;5.43;4.00;;;16.60;99.90;;;;;;4144973;28;20233;-79
2022/05/20 00:28:21;;;;;;;8.20;4.30;;;16.60;99.90;;;;;;4207511;28;20208;-79
2022/05/20 00:30:25;;;;;;;8.60;4.37;;;16.50;99.90;;;;;;4152875;28;20204;-79
2022/05/20 00:32:27;;;;;;;9.80;4.60;;;16.60;99.90;;;;;;4228877;28;20701;-79
2022/05/20 00:34:28;;;;;;;5.13;3.73;;;16.60;99.90;;;;;;4146380;28;20550;-79
2022/05/20 00:36:31;;;;;;;8.00;4.90;;;16.60;99.90;;;;;;4211619;28;20231;-79
2022/05/20 00:38:32;;;;;;;8.07;4.87;;;16.60;99.90;;;;;;4187178;28;20205;-79
2022/05/20 00:40:35;;;;;;;7.27;4.70;;;16.50;99.90;;;;;;4169680;28;20580;-79
2022/05/20 00:42:37;;;;;;;9.93;5.53;;;16.50;99.90;;;;;;4146629;28;20219;-79
2022/05/20 00:44:39;;;;;;;8.00;5.23;;;16.50;99.90;;;;;;4227864;28;20228;-79
2022/05/20 00:46:42;;;;;;;7.07;5.03;;;16.50;99.90;;;;;;4212419;28;20211;-79
2022/05/20 00:48:45;;;;;;;7.03;4.77;;;16.50;99.90;;;;;;4225183;28;20222;-79
2022/05/20 00:50:51;;;;;;;9.20;5.27;;;16.50;99.90;;;;;;4144534;28;20211;-79
2022/05/20 00:52:53;;;;;;;7.80;4.83;;;16.50;99.90;;;;;;4144457;28;20290;-79
2022/05/20 00:54:58;;;;;;;6.83;4.20;;;16.50;99.90;;;;;;4228729;28;20228;-79
2022/05/20 00:57:03;;;;;;;12.23;4.47;;;16.50;99.90;;;;;;4139742;28;20211;-79
2022/05/20 00:59:08;;;;;;;8.43;4.00;;;16.50;99.90;;;;;;4145062;28;20241;-79
2022/05/20 01:01:10;;;;;;;6.73;4.00;;;16.50;99.90;;;;;;4145270;28;20683;-79
2022/05/20 01:03:16;;;;;;;7.60;4.13;;;16.40;99.90;;;;;;4144275;28;20221;-79
2022/05/20 01:05:24;;;;;;;6.17;3.80;;;16.50;99.90;;;;;;4144278;28;20239;-79
2022/05/20 01:07:27;;;;;;;9.93;4.10;;;16.50;99.90;;;;;;4142829;28;20211;-79
2022/05/20 01:09:29;;;;;;;6.00;3.73;;;16.40;99.90;;;;;;4145159;28;20219;-79
2022/05/20 01:11:31;;;;;;;5.30;3.53;;;16.40;99.90;;;;;;4144434;28;20241;-79
2022/05/20 01:13:33;;;;;;;6.20;3.40;;;16.40;99.90;;;;;;4143807;28;20214;-79
2022/05/20 01:15:35;;;;;;;4.93;3.60;;;16.40;99.90;;;;;;4143384;28;20565;-79
2022/05/20 01:17:38;;;;;;;7.13;4.03;;;16.40;99.90;;;;;;4141596;28;20256;-79
2022/05/20 01:19:47;;;;;;;6.47;3.23;;;16.40;99.90;;;;;;4144018;28;20246;-79
2022/05/20 01:21:49;;;;;;;7.47;3.63;;;16.30;99.90;;;;;;4141795;28;20628;-80
2022/05/20 01:23:52;;;;;;;8.53;4.13;;;16.30;99.90;;;;;;4145055;28;20204;-79
2022/05/20 01:25:56;;;;;;;4.60;3.37;;;16.30;99.90;;;;;;4161316;28;20233;-79
2022/05/20 01:27:59;;;;;;;6.83;3.67;;;16.40;99.90;;;;;;4146437;28;20252;-79
2022/05/20 01:30:01;;;;;;;5.90;3.30;;;16.30;99.90;;;;;;4144245;28;20319;-79
2022/05/20 01:32:02;;;;;;;4.47;3.60;;;16.30;99.90;;;;;;4144769;28;20506;-79
2022/05/20 01:34:04;;;;;;;5.37;3.40;;;16.30;99.90;;;;;;4145434;28;20217;-79
2022/05/20 01:36:09;;;;;;;7.20;3.80;;;16.30;99.90;;;;;;4143499;28;20228;-79
2022/05/20 01:38:12;;;;;;;7.83;3.67;;;16.30;99.90;;;;;;4140057;28;20219;-80
2022/05/20 01:40:15;;;;;;;4.37;3.07;;;16.30;99.90;;;;;;4144707;28;20225;-80
2022/05/20 01:42:24;;;;;;;5.50;3.10;;;16.40;99.90;;;;;;4137588;28;20359;-79
2022/05/20 01:44:33;;;;;;;5.23;3.50;;;16.30;99.90;;;;;;4141347;28;20440;-80
2022/05/20 01:46:37;;;;;;;5.07;3.30;;;16.40;99.90;;;;;;4141824;28;20227;-79
2022/05/20 01:48:44;;;;;;;6.43;3.20;;;16.20;99.90;;;;;;4141727;28;20691;-79
2022/05/20 01:50:52;;;;;;;4.40;3.37;;;16.20;99.90;;;;;;4141703;28;20220;-79
2022/05/20 01:53:00;;;;;;;4.90;3.50;;;16.30;99.90;;;;;;4141238;28;20251;-79
2022/05/20 01:55:07;;;;;;;6.47;3.33;;;16.20;99.90;;;;;;4141627;28;20231;-79
2022/05/20 01:57:17;;;;;;;8.90;3.77;;;16.20;99.90;;;;;;4139893;28;20211;-80
2022/05/20 01:59:25;;;;;;;5.73;3.77;;;16.10;99.90;;;;;;4143629;28;20275;-80
2022/05/20 02:01:36;;;;;;;6.13;3.77;;;16.20;99.90;;;;;;4140823;28;20218;-80
2022/05/20 02:03:45;;;;;;;4.77;3.40;;;16.10;99.90;;;;;;4145616;28;20535;-80
2022/05/20 02:05:50;;;;;;;9.33;4.27;;;16.10;99.90;;;;;;4140583;28;20644;-80
2022/05/20 02:07:57;;;;;;;5.17;3.40;;;16.10;99.90;;;;;;4142336;28;20211;-80
2022/05/20 02:10:04;;;;;;;7.20;3.60;;;16.10;99.90;;;;;;4142068;28;20413;-79
2022/05/20 02:12:07;;;;;;;6.93;3.90;;;16.00;99.90;;;;;;4139629;28;20599;-79
2022/05/20 02:14:16;;;;;;;8.97;4.20;;;16.00;99.90;;;;;;4143307;28;20223;-80
2022/05/20 02:16:22;;;;;;;6.83;3.93;;;16.00;99.90;;;;;;4143386;28;20220;-80
2022/05/20 02:18:28;;;;;;;9.50;3.97;;;16.00;99.90;;;;;;4144861;28;20210;-80
2022/05/20 02:20:35;;;;;;;7.63;4.20;;;16.10;99.90;;;;;;4141696;28;20583;-80
2022/05/20 02:22:41;;;;;;;5.93;4.47;;;16.00;99.90;;;;;;4159413;28;20862;-80
2022/05/20 02:24:46;;;;;;;5.73;3.80;;;15.90;99.90;;;;;;4145567;28;20309;-80
2022/05/20 02:27:01;;;;;;;8.07;4.20;;;16.00;99.90;;;;;;4142418;28;20234;-80
2022/05/20 02:29:09;;;;;;;6.03;4.10;;;15.90;99.90;;;;;;4145560;28;20264;-80
2022/05/20 02:31:17;;;;;;;7.77;4.17;;;15.90;99.90;;;;;;4145370;28;20240;-79
2022/05/20 02:33:22;;;;;;;9.53;4.00;;;15.90;99.90;;;;;;4144765;28;20217;-79
2022/05/20 02:35:24;;;;;;;8.63;3.77;;;15.90;99.90;;;;;;4225566;28;20220;-80
2022/05/20 02:37:29;;;;;;;5.77;3.93;;;15.90;99.90;;;;;;4142007;28;20606;-79
2022/05/20 02:39:31;;;;;;;5.77;3.90;;;15.90;99.90;;;;;;4142626;28;20289;-80
2022/05/20 02:41:33;;;;;;;10.30;4.40;;;15.90;99.90;;;;;;4145450;28;20205;-79
2022/05/20 02:43:35;;;;;;;8.40;4.17;;;15.80;99.90;;;;;;4211836;28;20251;-80
2022/05/20 02:45:37;;;;;;;5.00;3.80;;;15.80;99.90;;;;;;4142620;28;20226;-79
2022/05/20 02:47:40;;;;;;;5.87;4.13;;;15.80;99.90;;;;;;4189542;28;20219;-79
2022/05/20 02:49:42;;;;;;;6.33;4.00;;;15.80;99.90;;;;;;4156791;28;20213;-79
2022/05/20 02:51:44;;;;;;;9.50;4.73;;;15.80;99.90;;;;;;4144686;28;20220;-80
2022/05/20 02:53:47;;;;;;;6.00;4.10;;;15.80;99.90;;;;;;4225795;28;20235;-80
2022/05/20 02:55:49;;;;;;;8.77;4.93;;;15.80;99.90;;;;;;4139499;28;20821;-79
2022/05/20 02:57:50;;;;;;;9.70;4.30;;;15.80;99.90;;;;;;4208451;28;20216;-80
2022/05/20 03:04:32;;;;;;;7.47;4.80;;;15.70;99.90;;;;;;4143994;28;20210;-79
2022/05/20 03:06:34;;;;;;;9.40;4.50;;;15.70;99.90;;;;;;4139733;28;20281;-79
2022/05/20 03:08:36;;;;;;;7.80;4.80;;;15.70;99.90;;;;;;4208637;28;20211;-79
2022/05/20 03:10:38;;;;;;;7.97;4.40;;;15.70;99.90;;;;;;4209238;28;20216;-79
2022/05/20 03:12:40;;;;;;;6.73;4.53;;;15.80;99.90;;;;;;4212372;28;20730;-79
2022/05/20 03:14:41;;;;;;;9.00;4.10;;;15.70;99.90;;;;;;4145107;28;20223;-79
2022/05/20 03:16:44;;;;;;;7.13;4.53;;;15.70;99.90;;;;;;4150667;28;20211;-79
2022/05/20 03:18:46;;;;;;;10.07;4.63;;;15.80;99.90;;;;;;4211210;28;20211;-79
2022/05/20 03:20:49;;;;;;;9.83;4.90;;;15.70;99.90;;;;;;4211565;28;20219;-79
2022/05/20 03:22:51;;;;;;;8.40;4.70;;;15.70;99.90;;;;;;4144135;28;20550;-79
2022/05/20 03:24:52;;;;;;;7.37;4.73;;;15.70;99.90;;;;;;4224304;28;20235;-79
2022/05/20 03:26:54;;;;;;;8.80;4.97;;;15.70;99.90;;;;;;4146039;28;20286;-79
2022/05/20 03:28:59;;;;;;;7.20;4.57;;;15.70;99.90;;;;;;4144222;28;20298;-79
2022/05/20 03:31:06;;;;;;;6.27;4.80;;;15.70;99.90;;;;;;4149910;28;20201;-79
2022/05/20 03:33:08;;;;;;;6.60;4.57;;;15.60;99.90;;;;;;4150376;28;20221;-79
2022/05/20 03:35:11;;;;;;;7.63;5.23;;;15.60;99.90;;;;;;4214338;28;20241;-79
2022/05/20 03:37:14;;;;;;;7.20;4.70;;;15.70;99.90;;;;;;4142759;28;20199;-80
2022/05/20 03:39:18;;;;;;;6.93;5.17;;;15.70;99.90;;;;;;4146546;28;20297;-80
2022/05/20 03:41:20;;;;;;;8.37;4.90;;;15.70;99.90;;;;;;4211254;28;20212;-80
2022/05/20 03:43:22;;;;;;;7.10;5.13;;;15.70;99.90;;;;;;4229355;28;20226;-79
2022/05/20 03:45:24;;;;;;;9.87;5.63;;;15.70;99.90;;;;;;4145829;28;20306;-80
2022/05/20 03:47:26;;;;;;;13.00;5.80;;;15.60;99.90;;;;;;4145213;28;20222;-80
2022/05/20 03:49:29;;;;;;;9.17;5.33;;;15.70;99.90;;;;;;4145395;28;20209;-79
2022/05/20 03:51:31;;;;;;;11.07;5.60;;;15.70;99.90;;;;;;4229967;28;20698;-80
2022/05/20 03:53:34;;;;;;;7.33;5.43;;;15.80;99.90;;;;;;4145194;28;20202;-80
2022/05/20 03:55:36;;;;;;;8.77;5.87;;;15.70;99.90;;;;;;4210357;28;20255;-80
2022/05/20 03:57:38;;;;;;;7.90;5.37;;;15.60;99.90;;;;;;4143778;28;20214;-80
2022/05/20 03:59:40;;;;;;;10.70;6.20;;;15.70;99.90;;;;;;4146763;28;20213;-79
2022/05/20 04:01:58;;;;;;;12.60;6.00;;;15.70;99.90;;;;;;4229404;28;20258;-79
2022/05/20 04:04:00;;;;;;;7.57;5.40;;;15.60;99.90;;;;;;4227655;28;20291;-80
2022/05/20 04:06:02;;;;;;;8.13;5.13;;;15.60;99.90;;;;;;4146792;28;20316;-80
2022/05/20 04:08:04;;;;;;;8.03;5.80;;;15.60;99.90;;;;;;4146579;28;20241;-80
2022/05/20 04:10:09;;;;;;;6.93;4.97;;;15.60;99.90;;;;;;4213704;28;20633;-80
2022/05/20 04:12:17;;;;;;;13.07;5.87;;;15.60;99.90;;;;;;4227723;28;20205;-80
2022/05/20 04:14:19;;;;;;;10.00;5.80;;;15.70;99.90;;;;;;4149770;28;20206;-80
2022/05/20 04:16:21;;;;;;;11.77;6.07;;;15.60;99.90;;;;;;4229032;28;20212;-80
2022/05/20 04:18:23;;;;;;;9.07;6.53;;;15.70;99.90;;;;;;4146158;28;20708;-80
2022/05/20 04:20:25;;;;;;;9.93;5.83;;;15.80;99.90;;;;;;4146560;28;20196;-80
2022/05/20 04:22:30;;;;;;;8.47;5.67;;;15.70;99.90;;;;;;4148011;28;20198;-80
2022/05/20 04:24:33;;;;;;;9.00;5.50;;;15.60;99.90;;;;;;4210510;28;20235;-80
2022/05/20 04:26:37;;;;;;;7.40;5.60;;;15.70;99.90;;;;;;4145860;28;20732;-82
2022/05/20 04:28:39;;;;;;;10.03;5.60;;;15.70;99.90;;;;;;4214326;28;20220;-80
2022/05/20 04:30:41;;;;;;;10.27;6.10;;;15.70;99.90;;;;;;4231212;28;20215;-80
2022/05/20 04:32:43;;;;;;;9.27;6.20;;;15.70;99.90;;;;;;4147025;28;20606;-80
2022/05/20 04:34:45;;;;;;;10.37;6.73;;;15.70;99.90;;;;;;4147032;28;20246;-80
2022/05/20 04:36:47;;;;;;;12.80;6.60;;;15.70;99.90;;;;;;4230939;28;20203;-80
2022/05/20 04:38:49;;;;;;;8.70;6.27;;;15.80;99.90;;;;;;4147108;28;20198;-80
2022/05/20 04:47:47;;;;;;;9.50;6.77;;;15.80;99.90;;;;;;4213132;28;20231;-79
2022/05/20 04:49:50;;;;;;;11.70;6.87;;;15.80;99.90;;;;;;4210143;28;20715;-79
2022/05/20 04:51:52;;;;;;;11.90;6.93;;;15.80;99.90;;;;;;4213033;28;20280;-80
2022/05/20 04:56:13;;;;;;;11.27;6.63;;;15.80;99.90;;;;;;4213046;28;20745;-80
2022/05/20 04:58:16;;;;;;;11.00;6.50;;;15.90;99.90;;;;;;4145641;28;20207;-80
2022/05/20 05:00:20;;;;;;;13.57;7.17;;;15.90;99.90;;;;;;4230750;28;20219;-80
2022/05/20 05:02:22;;;;;;;11.27;6.67;;;15.90;99.90;;;;;;4230848;28;20203;-80
2022/05/20 05:04:24;;;;;;;12.10;6.70;;;16.00;99.90;;;;;;4147215;28;20289;-80
2022/05/20 05:06:26;;;;;;;9.93;6.50;;;16.10;99.90;;;;;;4196234;22;20784;-77
2022/05/20 05:08:27;;;;;;;8.93;6.63;;;16.10;99.90;;;;;;4195177;28;20637;-77
2022/05/20 05:10:31;;;;;;;12.47;6.63;;;16.20;99.90;;;;;;4191363;28;20232;-77
2022/05/20 05:12:33;;;;;;;7.97;5.80;;;16.30;99.90;;;;;;4192850;28;20212;-77
2022/05/20 05:14:39;;;;;;;12.67;6.87;;;16.30;99.90;;;;;;4193897;28;20209;-77
2022/05/20 05:16:40;;;;;;;8.20;6.30;;;16.30;99.90;;;;;;4171628;28;20358;-77
2022/05/20 05:18:42;;;;;;;10.57;6.10;;;16.30;99.90;;;;;;4177770;28;20206;-77
2022/05/20 05:20:46;;;;;;;15.43;7.00;;;16.40;99.90;;;;;;4174570;28;20202;-77
2022/05/20 05:22:49;;;;;;;9.90;6.30;;;16.40;99.90;;;;;;4178553;28;20210;-77
2022/05/20 05:24:51;;;;;;;13.17;7.07;;;16.40;99.90;;;;;;4162293;28;20588;-77
2022/05/20 05:26:53;;;;;;;12.97;6.73;;;16.50;99.90;;;;;;4177444;28;20208;-77
2022/05/20 05:28:55;;;;;;;11.40;7.10;;;16.60;99.90;;;;;;4162106;28;20236;-77
2022/05/20 05:30:58;;;;;;;9.63;6.53;;;16.60;99.90;;;;;;4180088;28;20205;-77
2022/05/20 05:33:00;;;;;;;10.40;6.00;;;16.60;99.90;;;;;;4182724;28;20205;-77
2022/05/20 05:35:02;;;;;;;10.63;6.77;;;16.70;99.90;;;;;;4184607;28;20233;-77
2022/05/20 05:37:04;;;;;;;10.70;6.53;;;16.70;99.90;;;;;;4183224;28;20206;-82
2022/05/20 05:39:06;;;;;;;9.70;6.33;;;16.80;99.90;;;;;;4188001;28;20202;-78
2022/05/20 05:41:08;;;;;;;11.57;6.80;;;16.80;99.90;;;;;;4179656;28;20206;-78
2022/05/20 05:43:11;;;;;;;11.40;6.87;;;16.90;99.90;;;;;;4174194;28;20199;-78
2022/05/20 05:45:15;;;;;;;14.10;7.00;;;16.90;99.90;;;;;;4174232;28;20226;-78
2022/05/20 05:47:18;;;;;;;10.17;6.50;;;16.90;99.90;;;;;;4175435;28;20219;-78
2022/05/20 05:49:20;;;;;;;10.83;7.27;;;17.00;99.90;;;;;;4156603;28;20218;-78
2022/05/20 05:51:22;;;;;;;13.13;7.77;;;17.00;99.90;;;;;;4171456;28;20234;-78
2022/05/20 05:53:26;;;;;;;11.37;6.83;;;17.10;99.90;;;;;;4174284;28;20792;-78
2022/05/20 05:55:28;;;;;;;13.53;7.07;;;17.10;99.90;;;;;;4146567;28;20281;-78
2022/05/20 05:57:30;;;;;;;11.93;7.10;;;17.10;99.90;;;;;;4173761;28;20272;-78
2022/05/20 05:59:32;;;;;;;14.40;7.37;;;17.20;99.90;;;;;;4174729;28;20694;-78
2022/05/20 06:01:33;;;;;;;12.73;6.70;;;17.20;99.90;;;;;;4169963;28;20241;-78
2022/05/20 06:03:37;;;;;;;12.63;6.73;;;17.30;99.90;;;;;;4172694;28;20585;-78
2022/05/20 06:05:39;;;;;;;9.43;6.87;;;17.40;99.90;;;;;;4156230;28;20238;-78
2022/05/20 06:07:41;;;;;;;12.20;7.90;;;17.40;99.90;;;;;;4170295;28;20233;-78
2022/05/20 06:09:43;;;;;;;9.43;6.50;;;17.50;99.90;;;;;;4175279;28;20294;-79
2022/05/20 06:11:44;;;;;;;10.63;7.13;;;17.60;99.90;;;;;;4175659;28;20406;-79
2022/05/20 06:13:46;;;;;;;12.10;7.53;;;17.70;99.90;;;;;;4174739;28;20711;-78
2022/05/20 06:15:48;;;;;;;13.13;7.20;;;17.70;99.90;;;;;;4155289;28;20228;-78
2022/05/20 06:17:50;;;;;;;10.67;6.57;;;17.80;99.90;;;;;;4173972;28;20210;-78
2022/05/20 06:19:53;;;;;;;9.60;6.30;;;17.80;99.90;;;;;;4155652;28;20266;-78
2022/05/20 06:21:55;;;;;;;12.93;6.83;;;17.90;99.90;;;;;;4175459;28;20214;-78
2022/05/20 06:23:57;;;;;;;10.57;7.13;;;18.00;99.90;;;;;;4171891;28;20269;-78
2022/05/20 06:25:59;;;;;;;11.60;7.37;;;17.90;99.90;;;;;;4172548;28;20319;-78
2022/05/20 06:28:09;;;;;;;11.07;7.50;;;18.10;99.90;;;;;;4174422;28;20218;-78
2022/05/20 06:30:14;;;;;;;12.03;7.03;;;18.10;99.90;;;;;;4172614;28;20209;-78
2022/05/20 06:32:16;;;;;;;11.27;6.70;;;18.10;99.90;;;;;;4172934;28;20233;-78
2022/05/20 06:34:18;;;;;;;10.77;6.80;;;18.20;99.90;;;;;;4174535;28;20211;-78
2022/05/20 06:41:00;;;;;;;14.63;9.07;;;18.20;99.90;;;;;;4171051;28;20238;-78
2022/05/20 06:43:02;;;;;;;10.30;7.43;;;18.40;99.90;;;;;;4175489;28;20664;-81
2022/05/20 06:45:06;;;;;;;16.07;7.60;;;18.40;99.90;;;;;;4167937;28;20509;-79
2022/05/20 06:47:08;;;;;;;11.73;8.17;;;18.40;99.90;;;;;;4151683;28;20284;-79
2022/05/20 06:49:10;;;;;;;11.83;6.97;;;18.50;99.90;;;;;;4170962;28;20209;-79
2022/05/20 06:51:15;;;;;;;13.20;7.10;;;18.50;99.90;;;;;;4174304;28;20954;-79
2022/05/20 06:53:18;;;;;;;10.33;6.90;;;18.60;99.90;;;;;;4154394;28;20211;-79
2022/05/20 06:55:20;;;;;;;13.00;7.13;;;18.60;99.90;;;;;;4170652;28;20219;-79
2022/05/20 06:57:24;;;;;;;10.10;6.43;;;19.00;99.90;;;;;;4171570;28;20219;-79
2022/05/20 06:59:26;;;;;;;9.17;6.70;;;18.70;99.90;;;;;;4171636;28;20498;-79
2022/05/20 07:01:28;;;;;;;12.47;8.57;;;18.70;99.90;;;;;;4175792;28;20198;-78
2022/05/20 07:03:30;;;;;;;14.17;7.10;;;18.70;99.90;;;;;;4176008;28;20224;-78
2022/05/20 07:05:34;;;;;;;10.60;6.80;;;18.80;99.90;;;;;;4184124;28;20288;-78
2022/05/20 07:07:36;;;;;;;11.77;7.53;;;18.80;99.90;;;;;;4181981;28;20250;-78
2022/05/20 07:09:39;;;;;;;9.33;6.10;;;19.00;99.90;;;;;;4178333;28;20227;-78
2022/05/20 07:11:42;;;;;;;8.43;6.40;;;18.80;99.90;;;;;;4179837;28;20438;-78
2022/05/20 07:13:44;;;;;;;9.93;6.23;;;18.90;99.90;;;;;;4186322;28;20707;-79
2022/05/20 07:15:45;;;;;;;10.23;6.57;;;19.00;99.90;;;;;;4188559;28;20289;-79
2022/05/20 07:17:48;;;;;;;10.13;6.63;;;19.10;99.90;;;;;;4184688;28;20694;-79
2022/05/20 07:19:51;;;;;;;10.67;6.50;;;19.10;99.90;;;;;;4168076;28;20211;-80
2022/05/20 07:21:53;;;;;;;11.43;6.53;;;19.20;99.90;;;;;;4168600;28;20218;-79
2022/05/20 07:23:55;;;;;;;8.63;5.83;;;19.30;99.90;;;;;;4189669;28;20212;-80
2022/05/20 07:25:58;;;;;;;11.13;6.60;;;19.30;99.90;;;;;;4186970;28;20259;-79
2022/05/20 07:28:00;;;;;;;9.13;6.07;;;19.40;99.90;;;;;;4187913;28;20220;-79
2022/05/20 07:30:03;;;;;;;8.97;6.23;;;19.50;99.90;;;;;;4188057;28;20209;-79
2022/05/20 07:32:06;;;;;;;8.70;6.13;;;19.50;99.90;;;;;;4191566;28;20602;-79
2022/05/20 07:34:09;;;;;;;9.13;6.57;;;19.60;99.90;;;;;;4191477;28;20220;-79
2022/05/20 07:36:11;;;;;;;11.13;6.73;;;19.60;99.90;;;;;;4177900;28;20231;-79
2022/05/20 07:38:13;;;;;;;11.33;6.97;;;19.60;99.90;;;;;;4164821;28;20213;-79
2022/05/20 07:40:16;;;;;;;9.17;6.93;;;19.70;99.90;;;;;;4177691;28;20264;-79
2022/05/20 07:42:19;;;;;;;9.40;6.80;;;19.70;99.90;;;;;;4181087;28;20947;-80
2022/05/20 07:44:21;;;;;;;13.20;7.03;;;19.90;99.90;;;;;;4164433;28;20260;-79
2022/05/20 07:46:23;;;;;;;12.93;7.83;;;19.80;99.90;;;;;;4158645;28;20234;-79
2022/05/20 07:48:25;;;;;;;12.97;6.83;;;19.80;99.90;;;;;;4167436;28;20239;-80
2022/05/20 07:50:27;;;;;;;10.40;6.47;;;19.90;99.90;;;;;;4164074;28;20289;-80
2022/05/20 07:54:48;;;;;;;9.10;6.63;;;20.00;99.90;;;;;;4180481;28;20615;-80
2022/05/20 07:56:55;;;;;;;11.30;6.83;;;20.10;99.90;;;;;;4164905;28;20692;-80
2022/05/20 07:59:03;;;;;;;10.47;7.30;;;20.20;99.90;;;;;;4184376;28;20264;-80
2022/05/20 08:01:06;;;;;;;11.07;6.73;;;20.30;99.90;;;;;;4167777;28;20273;-80
2022/05/20 08:03:11;;;;;;;9.53;6.50;;;20.50;99.90;;;;;;4180622;28;20294;-80
2022/05/20 08:05:12;;;;;;;12.13;7.93;;;20.40;99.90;;;;;;4185276;28;20292;-80
2022/05/20 08:07:14;;;;;;;10.60;7.23;;;20.50;99.90;;;;;;4159413;28;20203;-80
2022/05/20 08:09:16;;;;;;;11.87;7.37;;;20.50;99.90;;;;;;4159043;28;20749;-79
2022/05/20 08:11:18;;;;;;;13.17;8.97;;;20.70;99.90;;;;;;4158541;28;20214;-80
2022/05/20 08:13:21;;;;;;;17.73;8.57;;;20.70;99.90;;;;;;4182144;28;20725;-80
2022/05/20 08:15:25;;;;;;;10.30;7.10;;;20.70;99.90;;;;;;4179961;28;20245;-80
2022/05/20 08:17:29;;;;;;;9.93;7.97;;;20.80;99.90;;;;;;4162185;28;20301;-80
2022/05/20 08:19:31;;;;;;;14.40;9.13;;;20.80;99.90;;;;;;4175532;28;20214;-79
2022/05/20 08:21:33;;;;;;;13.30;8.97;;;20.90;99.90;;;;;;4174037;28;20695;-80
2022/05/20 08:23:37;;;;;;;17.13;8.70;;;20.90;99.90;;;;;;4176128;28;20218;-80
2022/05/20 08:25:39;;;;;;;16.83;9.43;;;21.00;99.90;;;;;;4162110;28;20678;-80
2022/05/20 08:27:41;;;;;;;12.63;9.00;;;21.00;99.90;;;;;;4161315;28;20233;-80
2022/05/20 08:29:43;;;;;;;12.97;9.57;;;21.10;99.90;;;;;;4183834;28;20221;-80
2022/05/20 08:31:46;;;;;;;11.77;8.97;;;21.10;99.90;;;;;;4180812;28;20230;-80
2022/05/20 08:33:50;;;;;;;13.13;8.90;;;21.10;99.90;;;;;;4164523;28;20849;-80
2022/05/20 08:35:52;;;;;;;12.87;8.47;;;21.10;99.90;;;;;;4166613;28;20230;-79
2022/05/20 08:37:55;;;;;;;15.00;10.17;;;21.10;99.90;;;;;;4163684;28;20502;-81
2022/05/20 08:39:57;;;;;;;14.97;8.90;;;21.10;99.90;;;;;;4166200;28;20230;-80
2022/05/20 08:41:58;;;;;;;11.97;9.43;;;21.20;99.90;;;;;;4184189;28;20216;-81
2022/05/20 08:44:01;;;;;;;12.07;8.87;;;21.20;99.90;;;;;;4182186;28;20258;-81
2022/05/20 08:46:08;;;;;;;14.93;8.97;;;21.20;99.90;;;;;;4184290;28;20237;-80
2022/05/20 08:48:12;;;;;;;18.20;10.77;;;21.40;99.90;;;;;;4187523;28;20317;-80
2022/05/20 08:50:16;;;;;;;14.73;9.30;;;21.40;99.90;;;;;;4185913;28;20285;-81
2022/05/20 08:52:19;;;;;;;14.43;11.40;;;21.50;99.90;;;;;;4176711;28;20211;-80
2022/05/20 08:54:21;;;;;;;16.07;11.83;;;21.50;99.90;;;;;;4184560;28;20237;-81
2022/05/20 08:56:25;;;;;;;14.27;10.43;;;21.60;99.90;;;;;;4185367;28;20253;-81
2022/05/20 08:58:28;;;;;;;16.57;10.80;;;21.60;99.90;;;;;;4179849;28;20786;-80
2022/05/20 09:00:31;;;;;;;16.03;10.30;;;21.60;99.90;;;;;;4161098;28;20230;-80
2022/05/20 09:02:33;;;;;;;14.80;9.77;;;21.60;99.90;;;;;;4186599;28;20293;-80
2022/05/20 09:04:36;;;;;;;15.63;10.63;;;21.60;99.90;;;;;;4168209;28;20253;-81
2022/05/20 09:06:39;;;;;;;14.77;10.83;;;21.70;99.90;;;;;;4185671;28;20293;-81
2022/05/20 09:08:41;;;;;;;18.97;11.63;;;21.70;99.90;;;;;;4169146;28;20236;-80
2022/05/20 09:10:47;;;;;;;16.67;10.80;;;21.80;99.90;;;;;;4187906;28;20633;-80
2022/05/20 09:12:49;;;;;;;15.13;10.53;;;21.80;99.90;;;;;;4184803;28;20206;-80
2022/05/20 09:17:23;;;;;;;16.47;12.30;;;22.00;99.90;;;;;;4170433;28;20231;-81
2022/05/20 09:19:28;;;;;;;18.30;12.67;;;22.00;99.90;;;;;;4165357;28;20237;-80
2022/05/20 09:21:36;;;;;;;20.73;13.33;;;22.00;99.90;;;;;;4163170;28;20222;-81
2022/05/20 09:23:51;;;;;;;22.20;13.57;;;22.00;99.90;;;;;;4173946;28;20211;-79
2022/05/20 09:26:02;;;;;;;16.87;12.60;;;22.00;99.90;;;;;;4159067;28;20331;-81
2022/05/20 09:28:27;;;;;;;17.20;12.97;;;22.10;99.90;;;;;;4159548;28;20226;-80
2022/05/20 09:30:39;;;;;;;14.63;11.67;;;22.10;99.90;;;;;;4161678;28;20336;-80
2022/05/20 09:32:44;;;;;;;17.60;13.20;;;22.10;99.90;;;;;;4177691;28;20210;-80
2022/05/20 09:34:54;;;;;;;19.80;13.33;;;22.10;99.90;;;;;;4160493;28;20218;-81
2022/05/20 09:36:59;;;;;;;19.40;13.07;;;22.10;99.90;;;;;;4177631;28;20205;-80
2022/05/20 09:39:11;;;;;;;18.30;14.03;;;22.10;99.90;;;;;;4175471;28;20290;-80
2022/05/20 09:41:15;;;;;;;20.57;14.13;;;22.10;99.90;;;;;;4172624;28;20299;-80
2022/05/20 09:43:25;;;;;;;16.23;12.50;;;22.10;99.90;;;;;;4158559;28;20236;-81
2022/05/20 09:45:28;;;;;;;16.67;12.63;;;22.10;99.90;;;;;;4177529;28;20303;-81
2022/05/20 09:47:32;;;;;;;20.30;15.37;;;22.20;99.90;;;;;;4178695;28;20217;-80
2022/05/20 09:49:40;;;;;;;18.13;12.40;;;22.20;99.90;;;;;;4164442;28;20231;-80
2022/05/20 09:51:49;;;;;;;16.50;12.33;;;22.20;99.90;;;;;;4181327;28;20667;-81
2022/05/20 09:54:10;;;;;;;19.40;13.83;;;22.30;99.90;;;;;;4181951;28;20522;-81
2022/05/20 09:56:19;;;;;;;20.63;14.57;;;22.30;99.90;;;;;;4159067;28;20237;-80
2022/05/20 09:58:27;;;;;;;17.93;13.27;;;22.40;99.90;;;;;;4170253;28;20205;-81
2022/05/20 10:00:32;;;;;;;16.13;12.37;;;22.40;99.90;;;;;;4178730;28;20245;-79
2022/05/20 10:02:42;;;;;;;16.83;12.07;;;22.50;99.90;;;;;;4172458;28;20210;-83
2022/05/20 10:05:11;;;;;;;15.77;11.80;;;22.70;99.90;;;;;;4179298;28;20264;-80
2022/05/20 10:07:20;;;;;;;17.37;13.23;;;22.90;99.90;;;;;;4171785;28;20208;-79
2022/05/20 10:09:30;;;;;;;16.30;11.47;;;23.00;99.90;;;;;;4173512;28;20233;-79
2022/05/20 10:11:36;;;;;;;15.63;11.60;;;23.10;99.90;;;;;;4172322;28;20233;-80
2022/05/20 10:13:50;;;;;;;17.03;12.30;;;23.20;99.90;;;;;;4169992;28;20221;-80
2022/05/20 10:16:10;;;;;;;17.63;11.97;;;23.20;99.90;;;;;;4172791;28;20236;-80
2022/05/20 10:18:23;;;;;;;17.83;12.20;;;23.30;99.90;;;;;;4172963;28;20220;-80
2022/05/20 10:20:30;;;;;;;15.03;11.03;;;23.40;99.90;;;;;;4155559;28;20299;-79
2022/05/20 10:22:44;;;;;;;17.77;11.27;;;23.40;99.90;;;;;;4154852;28;20239;-79
2022/05/20 10:24:56;;;;;;;17.13;12.83;;;23.50;99.90;;;;;;4153052;28;20209;-79
2022/05/20 10:27:03;;;;;;;16.03;11.30;;;23.40;99.90;;;;;;4174136;28;20693;-80
2022/05/20 10:33:58;;;;;;;13.77;10.70;;;23.50;99.90;;;;;;4176443;28;20201;-79
2022/05/20 10:36:11;;;;;;;14.17;11.20;;;23.50;99.90;;;;;;4158607;28;20257;-80
2022/05/20 10:38:33;;;;;;;13.03;9.83;;;23.60;99.90;;;;;;4159308;28;20429;-80
2022/05/20 10:40:47;;;;;;;14.27;10.40;;;23.60;99.90;;;;;;4179616;28;20213;-80
2022/05/20 10:43:02;;;;;;;17.23;11.77;;;23.60;99.90;;;;;;4180579;28;20808;-81
2022/05/20 10:50:28;;;;;;;14.73;9.77;;;23.60;99.90;;;;;;4164600;28;20219;-80
2022/05/20 10:52:53;;;;;;;16.13;10.80;;;23.70;99.90;;;;;;4176036;28;20723;-82
2022/05/20 10:55:14;;;;;;;10.90;8.30;;;23.80;99.90;;;;;;4177839;28;20267;-81
2022/05/20 10:57:53;;;;;;;12.63;9.80;;;24.00;99.90;;;;;;4158685;28;20215;-81
2022/05/20 11:00:07;;;;;;;11.70;8.97;;;24.10;99.90;;;;;;4145658;28;20301;-81
2022/05/20 11:02:26;;;;;;;11.30;9.47;;;24.40;99.90;;;;;;4160688;28;20265;-81
2022/05/20 11:04:51;;;;;;;10.03;7.70;;;24.60;99.90;;;;;;4173238;28;20233;-81
2022/05/20 11:07:37;;;;;;;10.97;8.57;;;24.80;99.90;;;;;;4192944;22;20256;-86
2022/05/20 11:09:53;;;;;;;11.30;8.13;;;25.00;99.90;;;;;;4139019;28;20297;-81
2022/05/20 11:11:59;;;;;;;12.53;7.83;;;25.10;99.90;;;;;;4122117;28;20808;-82
2022/05/20 11:14:23;;;;;;;9.57;8.17;;;25.30;99.90;;;;;;4140567;28;20692;-82
2022/05/20 11:16:38;;;;;;;9.10;6.77;;;25.40;98.70;;;;;;4172997;28;20235;-82
2022/05/20 11:19:17;;;;;;;9.00;6.63;;;25.60;99.00;;;;;;4214973;28;20197;-82